aviador You're here:

KCLK Decoded Metar

CLINTON in OK, USA
Report Time2017-12-11 13:15:00
UTC Time2017-12-11 13:17:39
Flight Rules vfr VFR
Wind300° at 05 kt
W.Decomp.*RWY 31: 4.8 kt HW 1.5 kt LCW
RWY 35: 2.7 kt HW 4.2 kt LCW
W.Rank300° ranks 29
Current wind is below 300° avg. (7.9)
Visibility9999 m
Phenomena:N/A
Clouds:N/A
Expected CloudBase > 2,800 ft AGL from Temp-Dew spread
CeilingNone
Temp-3°C (ISA -15)
Dew Point-10°C (59% RH)
AAT-7.8°C
QNH1024 hPa
Density Alt-528 ft
Elevation1,614 ft
Report Wrong Elevation
Raw Report
KCLK 111315Z AUTO 30005KT 10SM CLR M03/M10 A3023 RMK AO2=

Extra information for KCLK:More info

Metar Taf Metar & Taf Last 4 Metars F.Rules Stats Wind Profile Meteogram Temp Stats Airport Information Weather charts Add Link Nearby VenuesMetar ALERT Operation Metar Decoded Social comments

AIRNAV info for KCLK